sensor_id;sensor_type;location;lat;lon;timestamp;pressure;altitude;pressure_sealevel;temperature;humidity
12868;BME280;33517;49.866;8.320;2023-05-19T00:00:58;101198.09;;;11.33;62.13
12868;BME280;33517;49.866;8.320;2023-05-19T00:03:51;101202.16;;;11.27;62.40
12868;BME280;33517;49.866;8.320;2023-05-19T00:06:49;101204.13;;;11.25;62.43
12868;BME280;33517;49.866;8.320;2023-05-19T00:09:41;101198.97;;;11.24;63.17
12868;BME280;33517;49.866;8.320;2023-05-19T00:12:35;101195.38;;;11.25;62.85
12868;BME280;33517;49.866;8.320;2023-05-19T00:15:28;101200.06;;;11.31;62.56
12868;BME280;33517;49.866;8.320;2023-05-19T00:18:20;101199.59;;;11.35;62.49
12868;BME280;33517;49.866;8.320;2023-05-19T00:21:13;101197.63;;;11.37;62.53
12868;BME280;33517;49.866;8.320;2023-05-19T00:24:05;101197.72;;;11.45;61.95
12868;BME280;33517;49.866;8.320;2023-05-19T00:26:57;101192.50;;;11.53;61.39
12868;BME280;33517;49.866;8.320;2023-05-19T00:29:50;101194.31;;;11.53;61.52
12868;BME280;33517;49.866;8.320;2023-05-19T00:32:42;101192.97;;;11.49;61.60
12868;BME280;33517;49.866;8.320;2023-05-19T00:35:34;101181.97;;;11.53;61.44
12868;BME280;33517;49.866;8.320;2023-05-19T00:38:26;101185.88;;;11.49;60.96
12868;BME280;33517;49.866;8.320;2023-05-19T00:41:18;101183.56;;;11.46;61.11
12868;BME280;33517;49.866;8.320;2023-05-19T00:44:10;101178.44;;;11.45;61.95
12868;BME280;33517;49.866;8.320;2023-05-19T00:47:03;101177.75;;;11.43;62.10
12868;BME280;33517;49.866;8.320;2023-05-19T00:49:55;101175.28;;;11.41;61.52
12868;BME280;33517;49.866;8.320;2023-05-19T00:52:47;101172.94;;;11.38;61.53
12868;BME280;33517;49.866;8.320;2023-05-19T00:55:39;101177.16;;;11.31;62.59
12868;BME280;33517;49.866;8.320;2023-05-19T00:58:32;101178.31;;;11.29;62.22
12868;BME280;33517;49.866;8.320;2023-05-19T01:01:24;101174.59;;;11.22;62.43
12868;BME280;33517;49.866;8.320;2023-05-19T01:04:18;101171.59;;;11.17;62.33
12868;BME280;33517;49.866;8.320;2023-05-19T01:07:11;101166.56;;;11.05;63.59
12868;BME280;33517;49.866;8.320;2023-05-19T01:10:03;101161.34;;;10.96;63.62
12868;BME280;33517;49.866;8.320;2023-05-19T01:12:56;101164.72;;;10.88;64.58
12868;BME280;33517;49.866;8.320;2023-05-19T01:15:57;101165.69;;;10.87;64.40
12868;BME280;33517;49.866;8.320;2023-05-19T01:18:56;101162.38;;;10.85;64.51
12868;BME280;33517;49.866;8.320;2023-05-19T01:22:17;101160.88;;;10.83;64.22
12868;BME280;33517;49.866;8.320;2023-05-19T01:25:35;101157.16;;;10.76;64.79
12868;BME280;33517;49.866;8.320;2023-05-19T01:31:51;101161.47;;;10.77;65.33
12868;BME280;33517;49.866;8.320;2023-05-19T01:34:47;101169.53;;;10.75;64.83
12868;BME280;33517;49.866;8.320;2023-05-19T01:37:40;101166.22;;;10.73;64.83
12868;BME280;33517;49.866;8.320;2023-05-19T01:40:32;101164.38;;;10.74;65.14
12868;BME280;33517;49.866;8.320;2023-05-19T01:43:25;101169.22;;;10.78;64.40
12868;BME280;33517;49.866;8.320;2023-05-19T01:46:17;101170.34;;;10.76;64.54
12868;BME280;33517;49.866;8.320;2023-05-19T01:49:11;101162.31;;;10.77;64.45
12868;BME280;33517;49.866;8.320;2023-05-19T01:52:04;101167.84;;;10.74;65.16
12868;BME280;33517;49.866;8.320;2023-05-19T01:54:56;101174.53;;;10.69;65.16
12868;BME280;33517;49.866;8.320;2023-05-19T01:57:56;101172.06;;;10.67;64.77
12868;BME280;33517;49.866;8.320;2023-05-19T02:00:52;101172.06;;;10.67;64.53
12868;BME280;33517;49.866;8.320;2023-05-19T02:03:54;101177.31;;;10.67;64.79
12868;BME280;33517;49.866;8.320;2023-05-19T02:06:56;101180.13;;;10.66;65.07
12868;BME280;33517;49.866;8.320;2023-05-19T02:09:53;101178.28;;;10.66;65.14
12868;BME280;33517;49.866;8.320;2023-05-19T02:12:46;101183.47;;;10.58;64.81
12868;BME280;33517;49.866;8.320;2023-05-19T02:15:43;101181.44;;;10.52;65.30
12868;BME280;33517;49.866;8.320;2023-05-19T02:18:35;101187.94;;;10.48;65.40
12868;BME280;33517;49.866;8.320;2023-05-19T02:21:27;101187.41;;;10.45;65.48
12868;BME280;33517;49.866;8.320;2023-05-19T02:24:20;101171.66;;;10.35;65.36
12868;BME280;33517;49.866;8.320;2023-05-19T02:27:13;101170.31;;;10.31;65.59
12868;BME280;33517;49.866;8.320;2023-05-19T02:30:06;101177.34;;;10.31;65.77
12868;BME280;33517;49.866;8.320;2023-05-19T02:32:58;101177.94;;;10.25;66.07
12868;BME280;33517;49.866;8.320;2023-05-19T02:35:50;101172.44;;;10.18;66.57
12868;BME280;33517;49.866;8.320;2023-05-19T02:38:42;101169.38;;;10.13;67.61
12868;BME280;33517;49.866;8.320;2023-05-19T02:41:35;101164.28;;;10.11;67.28
12868;BME280;33517;49.866;8.320;2023-05-19T02:44:27;101166.34;;;10.08;67.24
12868;BME280;33517;49.866;8.320;2023-05-19T02:47:19;101168.44;;;10.04;67.24
12868;BME280;33517;49.866;8.320;2023-05-19T02:50:11;101162.59;;;10.01;67.01
12868;BME280;33517;49.866;8.320;2023-05-19T02:53:03;101167.06;;;10.00;66.60
12868;BME280;33517;49.866;8.320;2023-05-19T02:55:54;101162.91;;;9.98;66.33
12868;BME280;33517;49.866;8.320;2023-05-19T02:58:48;101153.63;;;9.94;67.43
12868;BME280;33517;49.866;8.320;2023-05-19T03:01:40;101162.78;;;9.90;68.49
12868;BME280;33517;49.866;8.320;2023-05-19T03:04:32;101159.75;;;9.85;68.31
12868;BME280;33517;49.866;8.320;2023-05-19T03:07:31;101166.81;;;9.84;68.63
12868;BME280;33517;49.866;8.320;2023-05-19T03:10:23;101166.25;;;9.81;68.27
12868;BME280;33517;49.866;8.320;2023-05-19T03:13:15;101165.44;;;9.80;68.86
12868;BME280;33517;49.866;8.320;2023-05-19T03:16:08;101160.63;;;9.76;67.92
12868;BME280;33517;49.866;8.320;2023-05-19T03:19:01;101159.78;;;9.75;67.85
12868;BME280;33517;49.866;8.320;2023-05-19T03:21:53;101163.25;;;9.76;68.57
12868;BME280;33517;49.866;8.320;2023-05-19T03:24:45;101163.34;;;9.74;68.81
12868;BME280;33517;49.866;8.320;2023-05-19T03:27:40;101165.19;;;9.74;69.41
12868;BME280;33517;49.866;8.320;2023-05-19T03:30:32;101173.06;;;9.74;68.85
12868;BME280;33517;49.866;8.320;2023-05-19T03:33:25;101174.16;;;9.71;69.24
12868;BME280;33517;49.866;8.320;2023-05-19T03:36:19;101170.84;;;9.69;69.69
12868;BME280;33517;49.866;8.320;2023-05-19T03:39:11;101169.19;;;9.68;70.09
12868;BME280;33517;49.866;8.320;2023-05-19T03:42:03;101177.91;;;9.69;70.60
12868;BME280;33517;49.866;8.320;2023-05-19T03:44:55;101182.06;;;9.71;70.52
12868;BME280;33517;49.866;8.320;2023-05-19T03:47:47;101179.97;;;9.75;69.89
12868;BME280;33517;49.866;8.320;2023-05-19T03:50:40;101179.69;;;9.78;70.27
12868;BME280;33517;49.866;8.320;2023-05-19T03:53:34;101174.84;;;9.83;69.31
12868;BME280;33517;49.866;8.320;2023-05-19T03:56:27;101177.31;;;9.84;69.23
12868;BME280;33517;49.866;8.320;2023-05-19T03:59:19;101170.97;;;9.87;70.01
12868;BME280;33517;49.866;8.320;2023-05-19T04:02:13;101170.81;;;9.88;70.52
12868;BME280;33517;49.866;8.320;2023-05-19T04:05:05;101174.66;;;9.94;69.35
12868;BME280;33517;49.866;8.320;2023-05-19T04:07:58;101177.72;;;9.99;69.92
12868;BME280;33517;49.866;8.320;2023-05-19T04:10:50;101177.97;;;10.05;70.10
12868;BME280;33517;49.866;8.320;2023-05-19T04:13:42;101181.00;;;10.10;69.68
12868;BME280;33517;49.866;8.320;2023-05-19T04:16:34;101181.56;;;10.14;69.01
12868;BME280;33517;49.866;8.320;2023-05-19T04:19:26;101189.03;;;10.18;69.13
12868;BME280;33517;49.866;8.320;2023-05-19T04:22:18;101185.44;;;10.19;69.14
12868;BME280;33517;49.866;8.320;2023-05-19T04:25:11;101193.88;;;10.23;68.90
12868;BME280;33517;49.866;8.320;2023-05-19T04:28:03;101190.13;;;10.26;69.67
12868;BME280;33517;49.866;8.320;2023-05-19T04:30:54;101181.09;;;10.28;69.43
12868;BME280;33517;49.866;8.320;2023-05-19T04:33:48;101185.09;;;10.32;69.46
12868;BME280;33517;49.866;8.320;2023-05-19T04:36:40;101193.25;;;10.39;69.37
12868;BME280;33517;49.866;8.320;2023-05-19T04:39:32;101184.91;;;10.43;68.21
12868;BME280;33517;49.866;8.320;2023-05-19T04:42:25;101183.38;;;10.50;67.90
12868;BME280;33517;49.866;8.320;2023-05-19T04:45:20;101189.53;;;10.59;67.70
12868;BME280;33517;49.866;8.320;2023-05-19T04:48:12;101188.53;;;10.69;67.62
12868;BME280;33517;49.866;8.320;2023-05-19T04:54:51;101201.59;;;10.88;67.19
12868;BME280;33517;49.866;8.320;2023-05-19T04:57:45;101200.00;;;10.95;67.36
12868;BME280;33517;49.866;8.320;2023-05-19T05:00:36;101197.75;;;11.00;67.49
12868;BME280;33517;49.866;8.320;2023-05-19T05:03:28;101194.94;;;11.11;67.30
12868;BME280;33517;49.866;8.320;2023-05-19T05:06:22;101200.50;;;11.26;66.83
12868;BME280;33517;49.866;8.320;2023-05-19T05:09:14;101203.06;;;11.36;67.03
12868;BME280;33517;49.866;8.320;2023-05-19T05:12:07;101196.88;;;11.45;66.24
12868;BME280;33517;49.866;8.320;2023-05-19T05:15:01;101198.53;;;11.63;65.96
12868;BME280;33517;49.866;8.320;2023-05-19T05:17:53;101210.16;;;11.70;66.32
12868;BME280;33517;49.866;8.320;2023-05-19T05:20:46;101199.06;;;11.84;65.31
12868;BME280;33517;49.866;8.320;2023-05-19T05:23:38;101192.25;;;11.99;64.95
12868;BME280;33517;49.866;8.320;2023-05-19T05:26:32;101206.28;;;12.08;63.96
12868;BME280;33517;49.866;8.320;2023-05-19T05:29:24;101201.44;;;12.21;64.59
12868;BME280;33517;49.866;8.320;2023-05-19T05:32:18;101205.78;;;12.30;63.33
12868;BME280;33517;49.866;8.320;2023-05-19T05:35:10;101198.44;;;12.50;62.79
12868;BME280;33517;49.866;8.320;2023-05-19T05:38:02;101192.41;;;12.65;63.03
12868;BME280;33517;49.866;8.320;2023-05-19T05:40:53;101196.28;;;12.87;62.27
12868;BME280;33517;49.866;8.320;2023-05-19T05:43:45;101196.22;;;13.05;60.84
12868;BME280;33517;49.866;8.320;2023-05-19T05:46:37;101187.81;;;13.25;60.67
12868;BME280;33517;49.866;8.320;2023-05-19T05:49:31;101182.53;;;13.49;60.53
12868;BME280;33517;49.866;8.320;2023-05-19T05:52:28;101183.69;;;13.71;59.23
12868;BME280;33517;49.866;8.320;2023-05-19T05:55:21;101183.03;;;13.85;59.39
12868;BME280;33517;49.866;8.320;2023-05-19T05:58:13;101178.81;;;14.15;58.60
12868;BME280;33517;49.866;8.320;2023-05-19T06:01:06;101169.66;;;14.49;57.29
12868;BME280;33517;49.866;8.320;2023-05-19T06:04:00;101173.63;;;14.84;56.28
12868;BME280;33517;49.866;8.320;2023-05-19T06:06:53;101171.63;;;15.62;55.11
12868;BME280;33517;49.866;8.320;2023-05-19T06:09:50;101173.41;;;16.86;51.54
12868;BME280;33517;49.866;8.320;2023-05-19T06:12:42;101167.44;;;18.17;48.18
12868;BME280;33517;49.866;8.320;2023-05-19T06:15:34;101167.81;;;19.02;45.56
12868;BME280;33517;49.866;8.320;2023-05-19T06:18:27;101178.81;;;19.47;44.90
12868;BME280;33517;49.866;8.320;2023-05-19T06:21:19;101178.31;;;19.04;44.15
12868;BME280;33517;49.866;8.320;2023-05-19T06:24:12;101190.53;;;19.46;43.64
12868;BME280;33517;49.866;8.320;2023-05-19T06:27:04;101190.94;;;20.28;41.60
12868;BME280;33517;49.866;8.320;2023-05-19T06:29:56;101197.63;;;21.45;39.85
12868;BME280;33517;49.866;8.320;2023-05-19T06:32:48;101189.34;;;22.45;38.65
12868;BME280;33517;49.866;8.320;2023-05-19T06:35:40;101190.13;;;23.00;36.76
12868;BME280;33517;49.866;8.320;2023-05-19T06:38:32;101197.06;;;22.89;36.45
12868;BME280;33517;49.866;8.320;2023-05-19T06:41:25;101198.34;;;21.58;38.02
12868;BME280;33517;49.866;8.320;2023-05-19T06:44:17;101199.19;;;22.99;37.79
12868;BME280;33517;49.866;8.320;2023-05-19T06:47:08;101193.75;;;22.15;37.32
12868;BME280;33517;49.866;8.320;2023-05-19T06:50:01;101187.81;;;22.31;38.37
12868;BME280;33517;49.866;8.320;2023-05-19T06:52:53;101190.59;;;24.25;35.92
12868;BME280;33517;49.866;8.320;2023-05-19T06:55:46;101188.78;;;23.50;35.46
12868;BME280;33517;49.866;8.320;2023-05-19T06:58:41;101187.69;;;22.80;36.32
12868;BME280;33517;49.866;8.320;2023-05-19T07:01:33;101186.47;;;22.94;35.50
12868;BME280;33517;49.866;8.320;2023-05-19T07:04:25;101192.00;;;21.22;37.66
12868;BME280;33517;49.866;8.320;2023-05-19T07:07:16;101185.09;;;21.70;36.84
12868;BME280;33517;49.866;8.320;2023-05-19T07:10:09;101173.94;;;23.47;34.78
12868;BME280;33517;49.866;8.320;2023-05-19T07:13:01;101175.31;;;23.09;35.06
12868;BME280;33517;49.866;8.320;2023-05-19T07:15:54;101172.69;;;22.36;36.50
12868;BME280;33517;49.866;8.320;2023-05-19T07:18:46;101166.19;;;22.08;36.53
12868;BME280;33517;49.866;8.320;2023-05-19T07:21:38;101166.94;;;21.96;37.02
12868;BME280;33517;49.866;8.320;2023-05-19T07:24:29;101163.69;;;22.31;35.96
12868;BME280;33517;49.866;8.320;2023-05-19T07:27:21;101165.44;;;22.91;35.68
12868;BME280;33517;49.866;8.320;2023-05-19T07:30:13;101166.16;;;23.92;33.68
12868;BME280;33517;49.866;8.320;2023-05-19T07:33:06;101163.59;;;24.20;33.38
12868;BME280;33517;49.866;8.320;2023-05-19T07:35:58;101164.66;;;24.71;33.00
12868;BME280;33517;49.866;8.320;2023-05-19T07:38:50;101169.16;;;25.38;33.03
12868;BME280;33517;49.866;8.320;2023-05-19T07:41:42;101166.72;;;24.92;32.33
12868;BME280;33517;49.866;8.320;2023-05-19T07:44:34;101161.41;;;24.97;33.29
12868;BME280;33517;49.866;8.320;2023-05-19T07:47:26;101157.66;;;26.95;30.68
12868;BME280;33517;49.866;8.320;2023-05-19T07:50:19;101159.22;;;28.13;29.73
12868;BME280;33517;49.866;8.320;2023-05-19T07:53:11;101156.09;;;29.13;28.21
12868;BME280;33517;49.866;8.320;2023-05-19T07:56:03;101165.28;;;29.12;27.01
12868;BME280;33517;49.866;8.320;2023-05-19T07:58:56;101152.22;;;30.20;26.21
12868;BME280;33517;49.866;8.320;2023-05-19T08:01:48;101147.94;;;30.82;25.79
12868;BME280;33517;49.866;8.320;2023-05-19T08:04:39;101151.53;;;31.12;26.08
12868;BME280;33517;49.866;8.320;2023-05-19T08:07:33;101150.25;;;30.99;24.66
12868;BME280;33517;49.866;8.320;2023-05-19T08:10:25;101152.09;;;31.47;25.07
12868;BME280;33517;49.866;8.320;2023-05-19T08:13:17;101148.53;;;32.09;24.36
12868;BME280;33517;49.866;8.320;2023-05-19T08:16:09;101138.91;;;31.88;24.38
12868;BME280;33517;49.866;8.320;2023-05-19T08:19:01;101142.25;;;32.09;24.29
12868;BME280;33517;49.866;8.320;2023-05-19T08:21:54;101143.41;;;32.26;23.20
12868;BME280;33517;49.866;8.320;2023-05-19T08:24:48;101144.44;;;32.54;23.36
12868;BME280;33517;49.866;8.320;2023-05-19T08:27:41;101143.44;;;32.69;22.99
12868;BME280;33517;49.866;8.320;2023-05-19T08:30:33;101145.44;;;33.00;22.84
12868;BME280;33517;49.866;8.320;2023-05-19T08:33:25;101138.97;;;33.79;22.25
12868;BME280;33517;49.866;8.320;2023-05-19T08:36:17;101132.25;;;33.58;21.74
12868;BME280;33517;49.866;8.320;2023-05-19T08:39:08;101125.22;;;32.45;22.87
12868;BME280;33517;49.866;8.320;2023-05-19T08:42:02;101129.44;;;33.12;22.84
12868;BME280;33517;49.866;8.320;2023-05-19T08:44:54;101130.13;;;33.69;22.66
12868;BME280;33517;49.866;8.320;2023-05-19T08:47:46;101114.38;;;33.79;21.48
12868;BME280;33517;49.866;8.320;2023-05-19T08:50:39;101118.63;;;33.72;22.20
12868;BME280;33517;49.866;8.320;2023-05-19T08:53:35;101114.94;;;32.98;22.18
12868;BME280;33517;49.866;8.320;2023-05-19T08:56:28;101114.63;;;32.63;21.76
12868;BME280;33517;49.866;8.320;2023-05-19T08:59:23;101109.31;;;33.08;22.31
12868;BME280;33517;49.866;8.320;2023-05-19T09:02:15;101101.03;;;33.13;22.14
12868;BME280;33517;49.866;8.320;2023-05-19T09:05:07;101091.22;;;34.31;21.51
12868;BME280;33517;49.866;8.320;2023-05-19T09:08:00;101082.16;;;34.44;20.94
12868;BME280;33517;49.866;8.320;2023-05-19T09:10:54;101088.38;;;34.22;21.54
12868;BME280;33517;49.866;8.320;2023-05-19T09:13:46;101077.97;;;35.18;20.64
12868;BME280;33517;49.866;8.320;2023-05-19T09:16:40;101074.75;;;34.72;20.94
12868;BME280;33517;49.866;8.320;2023-05-19T09:19:32;101070.50;;;33.30;21.08
12868;BME280;33517;49.866;8.320;2023-05-19T09:22:24;101069.66;;;31.47;22.41
12868;BME280;33517;49.866;8.320;2023-05-19T09:25:17;101061.91;;;29.94;24.37
12868;BME280;33517;49.866;8.320;2023-05-19T09:28:09;101062.34;;;30.21;23.82
12868;BME280;33517;49.866;8.320;2023-05-19T09:31:02;101056.03;;;29.57;24.31
12868;BME280;33517;49.866;8.320;2023-05-19T09:33:55;101055.00;;;29.13;25.65
12868;BME280;33517;49.866;8.320;2023-05-19T09:36:48;101043.69;;;30.58;24.02
12868;BME280;33517;49.866;8.320;2023-05-19T09:39:43;101041.63;;;31.18;24.36
12868;BME280;33517;49.866;8.320;2023-05-19T09:42:39;101043.97;;;33.30;22.53
12868;BME280;33517;49.866;8.320;2023-05-19T09:45:31;101038.53;;;33.63;21.61
12868;BME280;33517;49.866;8.320;2023-05-19T09:48:24;101035.25;;;33.88;21.47
12868;BME280;33517;49.866;8.320;2023-05-19T09:51:18;101037.19;;;34.14;20.90
12868;BME280;33517;49.866;8.320;2023-05-19T09:54:13;101031.88;;;34.45;20.82
12868;BME280;33517;49.866;8.320;2023-05-19T09:57:06;101037.13;;;34.42;20.10
12868;BME280;33517;49.866;8.320;2023-05-19T09:59:59;101035.09;;;32.37;21.16
12868;BME280;33517;49.866;8.320;2023-05-19T10:02:51;101030.25;;;32.34;21.33
12868;BME280;33517;49.866;8.320;2023-05-19T10:05:43;101025.56;;;31.16;20.50
12868;BME280;33517;49.866;8.320;2023-05-19T10:08:38;101036.06;;;30.02;22.86
12868;BME280;33517;49.866;8.320;2023-05-19T10:11:31;101025.22;;;30.55;22.17
12868;BME280;33517;49.866;8.320;2023-05-19T10:14:25;101013.75;;;30.20;23.19
12868;BME280;33517;49.866;8.320;2023-05-19T10:17:17;101015.72;;;32.38;22.14
12868;BME280;33517;49.866;8.320;2023-05-19T10:20:11;101023.38;;;32.74;20.21
12868;BME280;33517;49.866;8.320;2023-05-19T10:23:04;101018.22;;;32.35;21.47
12868;BME280;33517;49.866;8.320;2023-05-19T10:25:58;101007.09;;;33.33;20.70
12868;BME280;33517;49.866;8.320;2023-05-19T10:28:53;101006.50;;;33.22;20.62
12868;BME280;33517;49.866;8.320;2023-05-19T10:31:46;100999.47;;;33.48;20.34
12868;BME280;33517;49.866;8.320;2023-05-19T10:35:07;101002.50;;;33.74;19.88
12868;BME280;33517;49.866;8.320;2023-05-19T10:38:11;101001.44;;;33.29;19.93
12868;BME280;33517;49.866;8.320;2023-05-19T10:41:10;100986.97;;;31.14;21.53
12868;BME280;33517;49.866;8.320;2023-05-19T10:44:08;100985.16;;;32.92;20.50
12868;BME280;33517;49.866;8.320;2023-05-19T10:47:01;100989.69;;;33.15;19.72
12868;BME280;33517;49.866;8.320;2023-05-19T10:49:53;100988.63;;;32.66;19.82
12868;BME280;33517;49.866;8.320;2023-05-19T10:52:51;100987.09;;;31.56;21.22
12868;BME280;33517;49.866;8.320;2023-05-19T10:55:44;100991.50;;;32.18;20.61
12868;BME280;33517;49.866;8.320;2023-05-19T10:58:48;100981.50;;;32.51;21.25
12868;BME280;33517;49.866;8.320;2023-05-19T11:01:40;100978.28;;;32.81;20.38
12868;BME280;33517;49.866;8.320;2023-05-19T11:04:44;100993.63;;;32.96;19.67
12868;BME280;33517;49.866;8.320;2023-05-19T11:07:40;100989.22;;;32.63;20.13
12868;BME280;33517;49.866;8.320;2023-05-19T11:10:33;100982.66;;;32.63;20.21
12868;BME280;33517;49.866;8.320;2023-05-19T11:13:26;100976.25;;;32.87;20.05
12868;BME280;33517;49.866;8.320;2023-05-19T11:16:25;100978.97;;;33.19;20.09
12868;BME280;33517;49.866;8.320;2023-05-19T11:19:18;100986.72;;;32.66;20.59
12868;BME280;33517;49.866;8.320;2023-05-19T11:22:12;100978.00;;;32.08;21.12
12868;BME280;33517;49.866;8.320;2023-05-19T11:25:05;100974.41;;;30.95;22.10
12868;BME280;33517;49.866;8.320;2023-05-19T11:27:59;100978.78;;;30.91;21.60
12868;BME280;33517;49.866;8.320;2023-05-19T11:30:53;100971.47;;;31.43;21.51
12868;BME280;33517;49.866;8.320;2023-05-19T11:33:48;100975.75;;;31.21;21.62
12868;BME280;33517;49.866;8.320;2023-05-19T11:36:40;100967.81;;;31.77;21.70
12868;BME280;33517;49.866;8.320;2023-05-19T11:39:32;100973.44;;;31.38;22.16
12868;BME280;33517;49.866;8.320;2023-05-19T11:42:24;100971.97;;;31.69;21.25
12868;BME280;33517;49.866;8.320;2023-05-19T11:45:16;100968.88;;;31.28;21.98
12868;BME280;33517;49.866;8.320;2023-05-19T11:48:10;100963.84;;;31.64;22.04
12868;BME280;33517;49.866;8.320;2023-05-19T11:51:05;100956.34;;;33.86;20.89
12868;BME280;33517;49.866;8.320;2023-05-19T11:53:57;100962.47;;;34.77;20.16
12868;BME280;33517;49.866;8.320;2023-05-19T11:56:49;100953.25;;;33.66;20.34
12868;BME280;33517;49.866;8.320;2023-05-19T11:59:41;100960.22;;;33.44;20.90
12868;BME280;33517;49.866;8.320;2023-05-19T12:02:35;100958.16;;;32.96;20.85
12868;BME280;33517;49.866;8.320;2023-05-19T12:05:27;100953.25;;;32.93;21.30
12868;BME280;33517;49.866;8.320;2023-05-19T12:08:20;100955.41;;;33.55;21.37
12868;BME280;33517;49.866;8.320;2023-05-19T12:11:13;100952.53;;;34.23;20.39
12868;BME280;33517;49.866;8.320;2023-05-19T12:14:05;100956.38;;;33.73;21.02
12868;BME280;33517;49.866;8.320;2023-05-19T12:16:57;100950.53;;;31.86;22.11
12868;BME280;33517;49.866;8.320;2023-05-19T12:19:49;100944.03;;;30.05;23.34
12868;BME280;33517;49.866;8.320;2023-05-19T12:22:42;100939.19;;;28.98;24.38
12868;BME280;33517;49.866;8.320;2023-05-19T12:25:35;100937.41;;;29.77;24.07
12868;BME280;33517;49.866;8.320;2023-05-19T12:28:28;100933.81;;;29.87;23.87
12868;BME280;33517;49.866;8.320;2023-05-19T12:31:20;100933.25;;;31.01;23.53
12868;BME280;33517;49.866;8.320;2023-05-19T12:34:13;100932.66;;;31.33;23.85
12868;BME280;33517;49.866;8.320;2023-05-19T12:37:06;100938.94;;;31.28;23.13
12868;BME280;33517;49.866;8.320;2023-05-19T12:39:58;100935.63;;;30.45;23.88
12868;BME280;33517;49.866;8.320;2023-05-19T12:42:55;100933.34;;;30.24;24.22
12868;BME280;33517;49.866;8.320;2023-05-19T12:45:48;100927.81;;;29.90;24.82
12868;BME280;33517;49.866;8.320;2023-05-19T12:48:40;100926.66;;;29.47;24.88
12868;BME280;33517;49.866;8.320;2023-05-19T12:51:32;100920.25;;;28.73;25.40
12868;BME280;33517;49.866;8.320;2023-05-19T12:54:24;100918.34;;;28.28;25.89
12868;BME280;33517;49.866;8.320;2023-05-19T12:57:16;100913.72;;;27.42;27.11
12868;BME280;33517;49.866;8.320;2023-05-19T13:00:14;100911.63;;;26.38;28.23
12868;BME280;33517;49.866;8.320;2023-05-19T13:03:13;100911.94;;;26.15;28.76
12868;BME280;33517;49.866;8.320;2023-05-19T13:06:05;100913.47;;;26.33;28.63
12868;BME280;33517;49.866;8.320;2023-05-19T13:08:57;100904.03;;;26.09;28.92
12868;BME280;33517;49.866;8.320;2023-05-19T13:11:49;100903.69;;;25.79;29.30
12868;BME280;33517;49.866;8.320;2023-05-19T13:14:43;100907.16;;;25.52;29.61
12868;BME280;33517;49.866;8.320;2023-05-19T13:17:36;100896.91;;;25.33;29.80
12868;BME280;33517;49.866;8.320;2023-05-19T13:20:28;100899.66;;;25.16;30.28
12868;BME280;33517;49.866;8.320;2023-05-19T13:23:20;100904.84;;;25.23;30.41
12868;BME280;33517;49.866;8.320;2023-05-19T13:26:12;100890.03;;;25.04;30.64
12868;BME280;33517;49.866;8.320;2023-05-19T13:29:04;100896.19;;;25.37;30.53
12868;BME280;33517;49.866;8.320;2023-05-19T13:31:55;100896.19;;;25.59;30.37
12868;BME280;33517;49.866;8.320;2023-05-19T13:34:49;100889.81;;;25.43;30.13
12868;BME280;33517;49.866;8.320;2023-05-19T13:37:41;100892.75;;;25.42;30.66
12868;BME280;33517;49.866;8.320;2023-05-19T13:40:33;100888.31;;;25.14;30.59
12868;BME280;33517;49.866;8.320;2023-05-19T13:43:25;100886.56;;;25.25;30.54
12868;BME280;33517;49.866;8.320;2023-05-19T13:46:16;100883.69;;;25.31;30.50
12868;BME280;33517;49.866;8.320;2023-05-19T13:49:08;100878.47;;;25.41;30.78
12868;BME280;33517;49.866;8.320;2023-05-19T13:52:03;100874.28;;;25.77;30.56
12868;BME280;33517;49.866;8.320;2023-05-19T13:54:56;100870.66;;;26.15;30.29
12868;BME280;33517;49.866;8.320;2023-05-19T13:57:48;100868.59;;;26.27;30.01
12868;BME280;33517;49.866;8.320;2023-05-19T14:00:40;100871.00;;;25.97;30.35
12868;BME280;33517;49.866;8.320;2023-05-19T14:03:32;100871.06;;;25.15;30.82
12868;BME280;33517;49.866;8.320;2023-05-19T14:06:24;100865.88;;;25.09;31.08
12868;BME280;33517;49.866;8.320;2023-05-19T14:09:18;100865.75;;;24.65;31.86
12868;BME280;33517;49.866;8.320;2023-05-19T14:12:10;100875.03;;;24.08;32.57
12868;BME280;33517;49.866;8.320;2023-05-19T14:15:04;100876.66;;;23.41;33.18
12868;BME280;33517;49.866;8.320;2023-05-19T14:17:56;100867.47;;;23.03;33.71
12868;BME280;33517;49.866;8.320;2023-05-19T14:20:48;100866.53;;;23.09;34.31
12868;BME280;33517;49.866;8.320;2023-05-19T14:23:40;100866.72;;;23.42;34.02
12868;BME280;33517;49.866;8.320;2023-05-19T14:26:33;100865.88;;;23.53;34.05
12868;BME280;33517;49.866;8.320;2023-05-19T14:29:25;100860.81;;;23.17;34.70
12868;BME280;33517;49.866;8.320;2023-05-19T14:32:17;100862.03;;;23.49;34.50
12868;BME280;33517;49.866;8.320;2023-05-19T14:35:09;100861.94;;;23.72;34.13
12868;BME280;33517;49.866;8.320;2023-05-19T14:38:01;100857.09;;;23.86;33.92
12868;BME280;33517;49.866;8.320;2023-05-19T14:40:52;100859.09;;;23.50;34.42
12868;BME280;33517;49.866;8.320;2023-05-19T14:43:46;100863.00;;;23.31;34.95
12868;BME280;33517;49.866;8.320;2023-05-19T14:46:38;100869.34;;;23.02;34.86
12868;BME280;33517;49.866;8.320;2023-05-19T14:49:29;100866.31;;;22.87;35.19
12868;BME280;33517;49.866;8.320;2023-05-19T14:52:21;100861.66;;;22.82;35.81
12868;BME280;33517;49.866;8.320;2023-05-19T14:55:13;100862.59;;;22.65;36.18
12868;BME280;33517;49.866;8.320;2023-05-19T14:58:05;100853.59;;;22.59;36.57
12868;BME280;33517;49.866;8.320;2023-05-19T15:00:59;100857.69;;;22.62;36.44
12868;BME280;33517;49.866;8.320;2023-05-19T15:03:50;100856.03;;;22.84;36.15
12868;BME280;33517;49.866;8.320;2023-05-19T15:06:42;100854.78;;;22.86;36.31
12868;BME280;33517;49.866;8.320;2023-05-19T15:09:34;100860.59;;;22.83;36.27
12868;BME280;33517;49.866;8.320;2023-05-19T15:12:26;100858.16;;;22.94;36.20